createdAt,value
2023-03-02T00:00:38.819Z,1.13
2023-03-02T00:01:44.557Z,1.14
2023-03-02T00:02:47.359Z,1.13
2023-03-02T00:03:49.197Z,1.10
2023-03-02T00:04:53.199Z,1.10
2023-03-02T00:05:55.843Z,1.09
2023-03-02T00:07:01.687Z,1.09
2023-03-02T00:08:03.761Z,1.10
2023-03-02T00:09:06.703Z,1.10
2023-03-02T00:10:09.618Z,1.10
2023-03-02T00:11:12.696Z,1.09
2023-03-02T00:12:15.837Z,1.08
2023-03-02T00:13:19.879Z,1.08
2023-03-02T00:14:21.539Z,1.06
2023-03-02T00:15:24.214Z,1.05
2023-03-02T00:16:26.180Z,1.05
2023-03-02T00:17:29.031Z,1.05
2023-03-02T00:18:31.328Z,1.05
2023-03-02T00:19:34.002Z,1.02
2023-03-02T00:20:36.014Z,1.02
2023-03-02T00:21:38.655Z,1.01
2023-03-02T00:22:42.586Z,1.02
2023-03-02T00:23:45.426Z,1.02
2023-03-02T00:24:47.089Z,1.00
2023-03-02T00:25:49.858Z,1.00
2023-03-02T00:26:51.627Z,1.01
2023-03-02T00:27:54.296Z,1.01
2023-03-02T00:28:57.443Z,1.00
2023-03-02T00:30:00.176Z,1.00
2023-03-02T00:31:04.903Z,0.99
2023-03-02T00:32:08.998Z,0.97
2023-03-02T00:33:10.748Z,0.95
2023-03-02T00:34:13.489Z,0.92
2023-03-02T00:35:15.607Z,0.91
2023-03-02T00:36:18.970Z,0.90
2023-03-02T00:37:20.855Z,0.88
2023-03-02T00:38:23.596Z,0.87
2023-03-02T00:39:25.310Z,0.84
2023-03-02T00:40:28.132Z,0.82
2023-03-02T00:41:29.846Z,0.80
2023-03-02T00:42:32.662Z,0.80
2023-03-02T00:43:34.346Z,0.75
2023-03-02T00:44:38.351Z,0.77
2023-03-02T00:45:40.137Z,0.73
2023-03-02T00:46:42.827Z,0.72
2023-03-02T00:47:44.603Z,0.70
2023-03-02T00:48:47.749Z,0.69
2023-03-02T00:49:49.637Z,0.64
2023-03-02T00:50:53.934Z,0.60
2023-03-02T00:51:55.705Z,0.51
2023-03-02T00:52:58.456Z,0.48
2023-03-02T00:54:02.876Z,0.45
2023-03-02T00:55:06.564Z,0.42
2023-03-02T00:56:08.909Z,0.37
2023-03-02T00:57:11.838Z,0.34
2023-03-02T00:58:13.556Z,0.31
2023-03-02T00:59:26.342Z,0.28
2023-03-02T01:00:29.864Z,0.25
2023-03-02T01:01:32.573Z,0.23
2023-03-02T01:02:34.359Z,0.21
2023-03-02T01:03:37.339Z,0.20
2023-03-02T01:04:40.723Z,0.17
2023-03-02T01:05:43.409Z,0.18
2023-03-02T01:06:47.165Z,0.14
2023-03-02T01:07:49.901Z,0.12
2023-03-02T01:08:51.748Z,0.10
2023-03-02T01:09:54.412Z,0.10
2023-03-02T01:10:56.241Z,0.10
2023-03-02T01:11:59.052Z,0.07
2023-03-02T01:13:00.767Z,0.09
2023-03-02T01:14:03.444Z,0.06
2023-03-02T01:15:06.536Z,0.05
2023-03-02T01:16:10.578Z,0.03
2023-03-02T01:17:13.022Z,0.04
2023-03-02T01:18:15.898Z,0.05
2023-03-02T01:19:17.671Z,0.05
2023-03-02T01:20:20.643Z,0.04
2023-03-02T01:21:22.458Z,0.03
2023-03-02T01:22:25.187Z,0.02
2023-03-02T01:23:26.879Z,0.00
2023-03-02T01:24:29.803Z,0.01
2023-03-02T01:25:31.510Z,0.03
2023-03-02T01:26:34.429Z,0.04
2023-03-02T01:27:36.536Z,0.02
2023-03-02T01:28:39.252Z,0.03
2023-03-02T01:29:41.115Z,0.02
2023-03-02T01:30:43.865Z,0.04
2023-03-02T01:31:47.043Z,-0.03
2023-03-02T01:32:49.856Z,-0.02
2023-03-02T01:33:51.789Z,-0.03
2023-03-02T01:34:54.586Z,-0.05
2023-03-02T01:35:56.476Z,-0.04
2023-03-02T01:36:59.178Z,-0.04
2023-03-02T01:38:00.927Z,-0.03
2023-03-02T01:39:04.407Z,-0.06
2023-03-02T01:40:07.505Z,-0.09
2023-03-02T01:41:10.539Z,-0.10
2023-03-02T01:42:12.337Z,-0.11
2023-03-02T01:43:17.172Z,-0.10
2023-03-02T01:44:42.772Z,-0.13
2023-03-02T01:45:52.098Z,-0.16
2023-03-02T01:46:56.368Z,-0.15
2023-03-02T01:47:58.090Z,-0.16
2023-03-02T01:49:03.140Z,-0.17
2023-03-02T01:50:07.437Z,-0.17
2023-03-02T01:51:15.928Z,-0.14
2023-03-02T01:52:18.173Z,-0.17
2023-03-02T01:53:21.833Z,-0.17
2023-03-02T01:54:23.788Z,-0.18
2023-03-02T01:55:30.146Z,-0.15
2023-03-02T01:56:35.089Z,-0.20
2023-03-02T01:57:43.658Z,-0.19
2023-03-02T01:58:46.621Z,-0.21
2023-03-02T01:59:51.814Z,-0.22
2023-03-02T02:00:54.930Z,-0.22
2023-03-02T02:02:01.998Z,-0.22
2023-03-02T02:03:08.859Z,-0.21
2023-03-02T02:04:11.863Z,-0.21
2023-03-02T02:05:16.424Z,-0.21
2023-03-02T02:06:23.511Z,-0.28
2023-03-02T02:07:25.231Z,-0.26
2023-03-02T02:08:28.260Z,-0.26
2023-03-02T02:09:32.136Z,-0.28
2023-03-02T02:10:35.544Z,-0.33
2023-03-02T02:11:38.271Z,-0.31
2023-03-02T02:12:40.966Z,-0.30
2023-03-02T02:13:43.476Z,-0.32
2023-03-02T02:14:47.149Z,-0.31
2023-03-02T02:15:48.847Z,-0.32
2023-03-02T02:16:51.763Z,-0.34
2023-03-02T02:17:55.634Z,-0.31
2023-03-02T02:18:58.472Z,-0.29
2023-03-02T02:20:09.345Z,-0.36
2023-03-02T02:21:12.554Z,-0.31
2023-03-02T02:22:16.129Z,-0.29
2023-03-02T02:23:26.821Z,-0.27
2023-03-02T02:24:31.814Z,-0.28
2023-03-02T02:25:46.634Z,-0.29
2023-03-02T02:26:51.585Z,-0.28
2023-03-02T02:27:54.521Z,-0.27
2023-03-02T02:29:00.705Z,-0.27
2023-03-02T02:30:04.691Z,-0.29
2023-03-02T02:31:14.482Z,-0.29
2023-03-02T02:32:19.467Z,-0.30
2023-03-02T02:33:23.746Z,-0.28
2023-03-02T02:34:30.549Z,-0.30
2023-03-02T02:35:34.824Z,-0.33
2023-03-02T02:36:41.836Z,-0.30
2023-03-02T02:37:46.072Z,-0.28
2023-03-02T02:38:52.259Z,-0.29
2023-03-02T02:39:54.912Z,-0.28
2023-03-02T02:40:58.968Z,-0.29
2023-03-02T02:42:03.908Z,-0.29
2023-03-02T02:43:07.525Z,-0.28
2023-03-02T02:44:11.916Z,-0.25
2023-03-02T02:45:21.136Z,-0.25
2023-03-02T02:46:23.124Z,-0.26
2023-03-02T02:47:26.173Z,-0.26
2023-03-02T02:48:31.214Z,-0.25
2023-03-02T02:49:36.587Z,-0.23
2023-03-02T02:50:38.322Z,-0.24
2023-03-02T02:51:41.065Z,-0.24
2023-03-02T02:52:44.213Z,-0.26
2023-03-02T02:53:49.802Z,-0.25
2023-03-02T02:54:53.368Z,-0.22
2023-03-02T02:55:58.465Z,-0.22
2023-03-02T02:57:03.149Z,-0.21
2023-03-02T02:58:27.084Z,-0.22
2023-03-02T02:59:32.206Z,-0.20
2023-03-02T03:00:34.871Z,-0.23
2023-03-02T03:01:36.658Z,-0.20
2023-03-02T03:02:45.212Z,-0.22
2023-03-02T03:03:50.625Z,-0.21
2023-03-02T03:05:02.441Z,-0.18
2023-03-02T03:06:06.972Z,-0.20
2023-03-02T03:07:11.875Z,-0.18
2023-03-02T03:08:46.676Z,-0.17
2023-03-02T03:09:53.853Z,-0.18
2023-03-02T03:10:55.609Z,-0.19
2023-03-02T03:11:59.724Z,-0.19
2023-03-02T03:13:02.786Z,-0.17
2023-03-02T03:14:09.475Z,-0.18
2023-03-02T03:15:11.753Z,-0.17
2023-03-02T03:16:16.628Z,-0.17
2023-03-02T03:17:19.455Z,-0.21
2023-03-02T03:18:23.768Z,-0.18
2023-03-02T03:19:29.023Z,-0.18
2023-03-02T03:20:30.758Z,-0.18
2023-03-02T03:21:33.801Z,-0.19
2023-03-02T03:22:37.345Z,-0.22
2023-03-02T03:23:39.074Z,-0.19
2023-03-02T03:24:42.633Z,-0.21
2023-03-02T03:25:44.329Z,-0.21
2023-03-02T03:26:47.168Z,-0.22
2023-03-02T03:27:48.884Z,-0.21
2023-03-02T03:28:53.658Z,-0.21
2023-03-02T03:29:56.496Z,-0.22
2023-03-02T03:30:58.265Z,-0.21
2023-03-02T03:32:02.080Z,-0.22
2023-03-02T03:33:03.924Z,-0.21
2023-03-02T03:34:06.739Z,-0.20
2023-03-02T03:35:11.525Z,-0.19
2023-03-02T03:36:14.212Z,-0.19
2023-03-02T03:37:21.735Z,-0.19
2023-03-02T03:38:24.639Z,-0.20
2023-03-02T03:39:27.198Z,-0.19
2023-03-02T03:40:30.025Z,-0.21
2023-03-02T03:41:32.170Z,-0.19
2023-03-02T03:42:34.875Z,-0.19
2023-03-02T03:43:36.648Z,-0.20
2023-03-02T03:44:40.712Z,-0.18
2023-03-02T03:45:42.460Z,-0.18
2023-03-02T03:46:45.147Z,-0.19
2023-03-02T03:47:46.910Z,-0.18
2023-03-02T03:48:49.689Z,-0.18
2023-03-02T03:49:51.405Z,-0.19
2023-03-02T03:50:54.183Z,-0.20
2023-03-02T03:51:55.997Z,-0.17
2023-03-02T03:52:58.765Z,-0.18
2023-03-02T03:54:00.534Z,-0.18
2023-03-02T03:55:03.935Z,-0.19
2023-03-02T03:56:06.316Z,-0.18
2023-03-02T03:57:11.276Z,-0.20
2023-03-02T03:58:12.995Z,-0.18
2023-03-02T03:59:18.123Z,-0.17
2023-03-02T04:00:22.431Z,-0.16
2023-03-02T04:01:34.891Z,-0.17
2023-03-02T04:02:36.927Z,-0.17
2023-03-02T04:03:39.684Z,-0.17
2023-03-02T04:04:41.420Z,-0.19
2023-03-02T04:05:44.118Z,-0.19
2023-03-02T04:06:46.045Z,-0.19
2023-03-02T04:07:49.331Z,-0.19
2023-03-02T04:08:51.047Z,-0.20
2023-03-02T04:10:03.606Z,-0.21
2023-03-02T04:11:05.330Z,-0.22
2023-03-02T04:12:09.316Z,-0.22
2023-03-02T04:13:11.923Z,-0.25
2023-03-02T04:14:14.921Z,-0.26
2023-03-02T04:15:17.329Z,-0.27
2023-03-02T04:16:21.368Z,-0.27
2023-03-02T04:17:23.154Z,-0.26
2023-03-02T04:18:25.817Z,-0.26
2023-03-02T04:19:27.524Z,-0.27
2023-03-02T04:20:31.086Z,-0.27
2023-03-02T04:21:32.778Z,-0.27
2023-03-02T04:22:35.425Z,-0.25
2023-03-02T04:23:37.104Z,-0.26
2023-03-02T04:24:39.804Z,-0.26
2023-03-02T04:25:41.539Z,-0.27
2023-03-02T04:26:44.562Z,-0.26
2023-03-02T04:27:46.697Z,-0.28
2023-03-02T04:28:50.807Z,-0.29
2023-03-02T04:29:53.064Z,-0.28
2023-03-02T04:30:55.942Z,-0.29
2023-03-02T04:31:59.087Z,-0.30
2023-03-02T04:33:01.850Z,-0.31
2023-03-02T04:34:04.251Z,-0.32
2023-03-02T04:35:07.813Z,-0.32
2023-03-02T04:36:10.000Z,-0.32
2023-03-02T04:37:13.283Z,-0.35
2023-03-02T04:38:15.082Z,-0.34
2023-03-02T04:39:19.458Z,-0.35
2023-03-02T04:40:21.519Z,-0.37
2023-03-02T04:41:24.234Z,-0.37
2023-03-02T04:42:25.931Z,-0.36
2023-03-02T04:43:28.650Z,-0.41
2023-03-02T04:44:30.346Z,-0.39
2023-03-02T04:45:33.260Z,-0.39
2023-03-02T04:46:35.431Z,-0.43
2023-03-02T04:47:39.783Z,-0.43
2023-03-02T04:48:41.453Z,-0.42
2023-03-02T04:49:44.215Z,-0.40
2023-03-02T04:50:46.027Z,-0.43
2023-03-02T04:51:49.666Z,-0.42
2023-03-02T04:52:51.373Z,-0.42
2023-03-02T04:53:54.879Z,-0.42
2023-03-02T04:54:56.581Z,-0.43
2023-03-02T04:55:59.443Z,-0.41
2023-03-02T04:57:01.301Z,-0.43
2023-03-02T04:58:04.036Z,-0.43
2023-03-02T04:59:05.851Z,-0.46
2023-03-02T05:00:10.921Z,-0.43
2023-03-02T05:01:13.461Z,-0.42
2023-03-02T05:02:16.242Z,-0.42
2023-03-02T05:03:19.351Z,-0.40
2023-03-02T05:04:22.374Z,-0.38
2023-03-02T05:05:24.890Z,-0.39
2023-03-02T05:06:27.634Z,-0.36
2023-03-02T05:07:29.380Z,-0.37
2023-03-02T05:08:32.724Z,-0.37
2023-03-02T05:09:34.558Z,-0.40
2023-03-02T05:10:37.256Z,-0.39
2023-03-02T05:11:38.942Z,-0.37
2023-03-02T05:12:55.179Z,-0.36
2023-03-02T05:14:00.233Z,-0.38
2023-03-02T05:15:02.906Z,-0.41
2023-03-02T05:16:05.412Z,-0.37
2023-03-02T05:17:08.370Z,-0.37
2023-03-02T05:18:11.223Z,-0.36
2023-03-02T05:19:15.454Z,-0.38
2023-03-02T05:20:17.779Z,-0.34
2023-03-02T05:21:20.481Z,-0.37
2023-03-02T05:22:22.175Z,-0.35
2023-03-02T05:23:25.843Z,-0.35
2023-03-02T05:24:27.826Z,-0.37
2023-03-02T05:25:32.133Z,-0.36
2023-03-02T05:26:34.716Z,-0.36
2023-03-02T05:27:37.847Z,-0.39
2023-03-02T05:28:40.168Z,-0.38
2023-03-02T05:29:42.846Z,-0.39
2023-03-02T05:30:44.957Z,-0.38
2023-03-02T05:31:48.456Z,-0.40
2023-03-02T05:32:51.286Z,-0.38
2023-03-02T05:33:54.010Z,-0.38
2023-03-02T05:34:57.062Z,-0.38
2023-03-02T05:35:59.911Z,-0.38
2023-03-02T05:37:01.707Z,-0.41
2023-03-02T05:38:05.119Z,-0.40
2023-03-02T05:39:07.112Z,-0.41
2023-03-02T05:40:11.417Z,-0.41
2023-03-02T05:41:13.259Z,-0.44
2023-03-02T05:42:16.016Z,-0.44
2023-03-02T05:43:20.455Z,-0.42
2023-03-02T05:44:23.160Z,-0.42
2023-03-02T05:45:27.220Z,-0.46
2023-03-02T05:46:30.213Z,-0.44
2023-03-02T05:47:31.964Z,-0.42
2023-03-02T05:48:34.759Z,-0.43
2023-03-02T05:49:36.473Z,-0.43
2023-03-02T05:50:40.561Z,-0.43
2023-03-02T05:51:42.280Z,-0.43
2023-03-02T05:52:45.465Z,-0.44
2023-03-02T05:53:47.135Z,-0.45
2023-03-02T05:54:49.848Z,-0.43
2023-03-02T05:55:51.845Z,-0.46
2023-03-02T05:56:54.549Z,-0.46
2023-03-02T05:57:56.736Z,-0.47
2023-03-02T05:58:59.465Z,-0.50
2023-03-02T06:00:01.195Z,-0.52
2023-03-02T06:01:03.950Z,-0.49
2023-03-02T06:02:05.846Z,-0.49
2023-03-02T06:03:08.770Z,-0.49
2023-03-02T06:04:11.478Z,-0.47
2023-03-02T06:05:14.496Z,-0.46
2023-03-02T06:06:18.814Z,-0.44
2023-03-02T06:07:20.544Z,-0.43
2023-03-02T06:08:23.460Z,-0.45
2023-03-02T06:09:25.850Z,-0.45
2023-03-02T06:10:28.724Z,-0.43
2023-03-02T06:11:30.431Z,-0.44
2023-03-02T06:12:33.741Z,-0.41
2023-03-02T06:13:35.892Z,-0.41
2023-03-02T06:14:38.643Z,-0.41
2023-03-02T06:15:40.638Z,-0.41
2023-03-02T06:16:43.343Z,-0.37
2023-03-02T06:17:45.455Z,-0.35
2023-03-02T06:18:48.166Z,-0.34
2023-03-02T06:19:49.843Z,-0.33
2023-03-02T06:20:52.568Z,-0.32
2023-03-02T06:21:55.625Z,-0.33
2023-03-02T06:22:58.465Z,-0.31
2023-03-02T06:24:01.270Z,-0.28
2023-03-02T06:25:04.199Z,-0.28
2023-03-02T06:26:10.038Z,-0.28
2023-03-02T06:27:12.534Z,-0.28
2023-03-02T06:28:15.474Z,-0.26
2023-03-02T06:29:17.222Z,-0.23
2023-03-02T06:30:22.693Z,-0.20
2023-03-02T06:31:25.431Z,-0.19
2023-03-02T06:32:27.200Z,-0.17
2023-03-02T06:33:30.539Z,-0.14
2023-03-02T06:34:33.997Z,-0.11
2023-03-02T06:35:38.202Z,-0.12
2023-03-02T06:36:40.070Z,-0.09
2023-03-02T06:37:44.525Z,-0.05
2023-03-02T06:38:46.248Z,-0.04
2023-03-02T06:39:48.915Z,-0.02
2023-03-02T06:40:50.749Z,-0.01
2023-03-02T06:41:53.520Z,0.00
2023-03-02T06:42:55.177Z,0.02
2023-03-02T06:43:57.843Z,0.03
2023-03-02T06:45:00.606Z,0.07
2023-03-02T06:46:04.149Z,0.05
2023-03-02T06:47:05.926Z,0.10
2023-03-02T06:48:08.864Z,0.13
2023-03-02T06:49:13.368Z,0.14
2023-03-02T06:50:16.865Z,0.17
2023-03-02T06:51:19.612Z,0.20
2023-03-02T06:52:21.421Z,0.25
2023-03-02T06:53:25.615Z,0.26
2023-03-02T06:54:27.303Z,0.30
2023-03-02T06:55:30.057Z,0.34
2023-03-02T06:56:32.113Z,0.36
2023-03-02T06:57:35.032Z,0.41
2023-03-02T06:58:37.289Z,0.44
2023-03-02T06:59:39.986Z,0.47
2023-03-02T07:00:41.741Z,0.48
2023-03-02T07:01:44.710Z,0.53
2023-03-02T07:02:46.996Z,0.56
2023-03-02T07:03:49.836Z,0.61
2023-03-02T07:04:51.565Z,0.64
2023-03-02T07:05:54.317Z,0.71
2023-03-02T07:06:56.042Z,0.79
2023-03-02T07:07:59.359Z,0.83
2023-03-02T07:09:02.787Z,0.89
2023-03-02T07:10:06.419Z,0.96
2023-03-02T07:11:09.086Z,1.01
2023-03-02T07:12:11.787Z,1.08
2023-03-02T07:13:13.619Z,1.11
2023-03-02T07:14:16.529Z,1.18
2023-03-02T07:15:19.680Z,1.24
2023-03-02T07:16:21.382Z,1.27
2023-03-02T07:17:24.138Z,1.33
2023-03-02T07:18:25.897Z,1.39
2023-03-02T07:19:28.590Z,1.45
2023-03-02T07:20:31.227Z,1.50
2023-03-02T07:21:33.230Z,1.55
2023-03-02T07:22:36.079Z,1.61
2023-03-02T07:23:37.797Z,1.66
2023-03-02T07:24:43.983Z,1.71
2023-03-02T07:25:46.570Z,1.75
2023-03-02T07:26:49.322Z,1.79
2023-03-02T07:27:51.139Z,1.84
2023-03-02T07:28:53.828Z,1.86
2023-03-02T07:29:56.636Z,1.86
2023-03-02T07:30:59.405Z,1.91
2023-03-02T07:32:01.213Z,1.95
2023-03-02T07:33:04.029Z,1.98
2023-03-02T07:34:05.713Z,2.00
2023-03-02T07:35:09.065Z,2.06
2023-03-02T07:36:10.781Z,2.10
2023-03-02T07:37:13.447Z,2.14
2023-03-02T07:38:15.151Z,2.13
2023-03-02T07:39:17.874Z,2.20
2023-03-02T07:40:22.115Z,2.26
2023-03-02T07:41:23.810Z,2.31
2023-03-02T07:42:26.555Z,2.34
2023-03-02T07:43:29.292Z,2.35
2023-03-02T07:44:32.292Z,2.38
2023-03-02T07:45:34.029Z,2.42
2023-03-02T07:46:36.768Z,2.47
2023-03-02T07:47:38.528Z,2.49
2023-03-02T07:48:41.217Z,2.52
2023-03-02T07:49:42.960Z,2.54
2023-03-02T07:50:45.626Z,2.57
2023-03-02T07:51:47.356Z,2.63
2023-03-02T07:52:50.104Z,2.63
2023-03-02T07:53:51.878Z,2.67
2023-03-02T07:54:54.568Z,2.73
2023-03-02T07:55:57.692Z,2.78
2023-03-02T07:57:00.648Z,2.78
2023-03-02T07:58:03.338Z,2.84
2023-03-02T07:59:06.130Z,2.87
2023-03-02T08:00:11.334Z,2.92
2023-03-02T08:01:13.005Z,2.93
2023-03-02T08:02:18.165Z,2.97
2023-03-02T08:03:20.957Z,3.03
2023-03-02T08:04:22.998Z,3.08
2023-03-02T08:05:25.724Z,3.14
2023-03-02T08:06:28.432Z,3.15
2023-03-02T08:07:31.214Z,3.15
2023-03-02T08:08:33.921Z,3.20
2023-03-02T08:09:35.618Z,3.26
2023-03-02T08:10:38.368Z,3.30
2023-03-02T08:11:41.953Z,3.37
2023-03-02T08:12:45.608Z,3.40
2023-03-02T08:13:47.741Z,3.43
2023-03-02T08:14:50.527Z,3.50
2023-03-02T08:15:59.841Z,3.57
2023-03-02T08:17:02.742Z,3.61
2023-03-02T08:18:04.579Z,3.66
2023-03-02T08:19:07.311Z,3.72
2023-03-02T08:20:10.289Z,3.80
2023-03-02T08:21:14.294Z,3.87
2023-03-02T08:22:16.968Z,3.94
2023-03-02T08:23:19.674Z,4.00
2023-03-02T08:24:22.399Z,4.06
2023-03-02T08:25:24.111Z,4.12
2023-03-02T08:26:26.735Z,4.18
2023-03-02T08:27:30.833Z,4.18
2023-03-02T08:28:32.687Z,4.24
2023-03-02T08:29:35.441Z,4.31
2023-03-02T08:30:37.151Z,4.33
2023-03-02T08:31:39.821Z,4.39
2023-03-02T08:32:41.653Z,4.43
2023-03-02T08:33:46.003Z,4.49
2023-03-02T08:34:51.266Z,4.54
2023-03-02T08:35:57.705Z,4.62
2023-03-02T08:37:00.529Z,4.64
2023-03-02T08:38:02.325Z,4.70
2023-03-02T08:39:05.147Z,4.72
2023-03-02T08:40:08.079Z,4.77
2023-03-02T08:41:13.014Z,4.83
2023-03-02T08:42:16.258Z,4.87
2023-03-02T08:43:19.515Z,4.92
2023-03-02T08:44:22.426Z,4.96
2023-03-02T08:45:24.532Z,5.05
2023-03-02T08:46:27.258Z,5.09
2023-03-02T08:47:29.078Z,5.13
2023-03-02T08:48:32.358Z,5.19
2023-03-02T08:49:34.098Z,5.24
2023-03-02T08:50:36.866Z,5.27
2023-03-02T08:51:38.898Z,5.29
2023-03-02T08:52:41.617Z,5.36
2023-03-02T08:53:45.401Z,5.42
2023-03-02T08:54:48.128Z,5.44
2023-03-02T08:55:50.826Z,5.49
2023-03-02T08:56:53.542Z,5.52
2023-03-02T08:57:55.684Z,5.55
2023-03-02T08:59:01.568Z,5.59
2023-03-02T09:00:08.608Z,5.64
2023-03-02T09:01:15.124Z,5.68
2023-03-02T09:02:17.934Z,5.72
2023-03-02T09:03:19.704Z,5.76
2023-03-02T09:04:22.555Z,5.80
2023-03-02T09:05:24.305Z,5.85
2023-03-02T09:06:27.093Z,5.82
2023-03-02T09:07:30.487Z,5.89
2023-03-02T09:08:33.184Z,5.92
2023-03-02T09:09:35.910Z,5.96
2023-03-02T09:10:37.730Z,5.99
2023-03-02T09:11:42.251Z,6.02
2023-03-02T09:12:44.001Z,6.06
2023-03-02T09:13:46.677Z,6.07
2023-03-02T09:14:50.840Z,6.13
2023-03-02T09:15:52.566Z,6.15
2023-03-02T09:16:55.460Z,6.17
2023-03-02T09:17:57.511Z,6.22
2023-03-02T09:19:00.161Z,6.29
2023-03-02T09:20:01.851Z,6.32
2023-03-02T09:21:05.294Z,6.34
2023-03-02T09:22:07.062Z,6.38
2023-03-02T09:23:11.048Z,6.37
2023-03-02T09:24:13.769Z,6.41
2023-03-02T09:25:15.646Z,6.41
2023-03-02T09:26:18.327Z,6.43
2023-03-02T09:27:21.055Z,6.49
2023-03-02T09:28:24.550Z,6.54
2023-03-02T09:29:26.239Z,6.59
2023-03-02T09:30:30.294Z,6.57
2023-03-02T09:31:32.600Z,6.65
2023-03-02T09:32:36.129Z,6.71
2023-03-02T09:33:39.111Z,6.79
2023-03-02T09:34:41.806Z,6.86
2023-03-02T09:35:43.555Z,6.88
2023-03-02T09:36:46.310Z,6.94
2023-03-02T09:37:48.077Z,7.00
2023-03-02T09:38:51.058Z,6.99
2023-03-02T09:39:52.743Z,7.06
2023-03-02T09:41:13.436Z,7.11
2023-03-02T09:42:27.134Z,7.15
2023-03-02T09:43:43.183Z,7.24
2023-03-02T09:45:01.649Z,7.29
2023-03-02T09:46:15.706Z,7.35
2023-03-02T09:47:34.837Z,7.42
2023-03-02T09:48:41.946Z,7.49
2023-03-02T09:49:53.828Z,7.53
2023-03-02T09:51:06.208Z,7.59
2023-03-02T09:52:12.365Z,7.60
2023-03-02T09:53:32.558Z,7.64
2023-03-02T09:54:35.248Z,7.64
2023-03-02T09:55:38.650Z,7.67
2023-03-02T09:56:45.255Z,7.74
2023-03-02T09:57:47.282Z,7.77
2023-03-02T09:58:54.786Z,7.80
2023-03-02T10:00:06.567Z,7.85
2023-03-02T10:01:23.568Z,7.90
2023-03-02T10:02:29.000Z,7.95
2023-03-02T10:03:36.253Z,7.99
2023-03-02T10:04:43.994Z,8.05
2023-03-02T10:05:48.139Z,8.12
2023-03-02T10:06:56.214Z,8.16
2023-03-02T10:07:59.504Z,8.20
2023-03-02T10:09:02.500Z,8.26
2023-03-02T10:10:13.220Z,8.32
2023-03-02T10:11:24.187Z,8.38
2023-03-02T10:12:44.777Z,8.45
2023-03-02T10:13:50.363Z,8.51
2023-03-02T10:14:58.571Z,8.57
2023-03-02T10:16:09.122Z,8.59
2023-03-02T10:17:38.340Z,8.62
2023-03-02T10:18:44.480Z,8.63
2023-03-02T10:19:48.313Z,8.64
2023-03-02T10:20:54.992Z,8.67
2023-03-02T10:22:00.381Z,8.67
2023-03-02T10:23:14.222Z,8.70
2023-03-02T10:24:24.101Z,8.65
2023-03-02T10:25:31.541Z,8.66
2023-03-02T10:26:40.519Z,8.70
2023-03-02T10:27:45.110Z,8.75
2023-03-02T10:28:49.432Z,8.77
2023-03-02T10:29:55.673Z,8.83
2023-03-02T10:31:02.986Z,8.90
2023-03-02T10:32:15.997Z,8.97
2023-03-02T10:33:21.275Z,9.04
2023-03-02T10:34:27.583Z,9.12
2023-03-02T10:35:31.920Z,9.11
2023-03-02T10:36:39.488Z,9.19
2023-03-02T10:37:41.325Z,9.23
2023-03-02T10:38:43.992Z,9.26
2023-03-02T10:39:46.877Z,9.27
2023-03-02T10:40:53.173Z,9.31
2023-03-02T10:42:00.247Z,9.31
2023-03-02T10:43:03.032Z,9.37
2023-03-02T10:44:08.369Z,9.43
2023-03-02T10:45:29.640Z,9.51
2023-03-02T10:46:42.206Z,9.55
2023-03-02T10:47:44.077Z,9.59
2023-03-02T10:48:53.188Z,9.62
2023-03-02T10:49:56.839Z,9.65
2023-03-02T10:51:00.478Z,9.68
2023-03-02T10:52:04.803Z,9.65
2023-03-02T10:53:08.896Z,9.67
2023-03-02T10:54:12.973Z,9.70
2023-03-02T10:55:17.113Z,9.76
2023-03-02T10:56:20.316Z,9.80
2023-03-02T10:57:37.555Z,9.88
2023-03-02T10:58:43.476Z,9.88
2023-03-02T10:59:46.625Z,9.91
2023-03-02T11:00:57.384Z,9.85
2023-03-02T11:02:00.244Z,9.83
2023-03-02T11:03:04.618Z,9.86
2023-03-02T11:04:15.506Z,9.91
2023-03-02T11:05:23.813Z,9.97
2023-03-02T11:06:27.094Z,10.03
2023-03-02T11:07:29.669Z,10.11
2023-03-02T11:08:32.921Z,10.20
2023-03-02T11:09:34.574Z,10.27
2023-03-02T11:10:39.145Z,10.30
2023-03-02T11:11:49.824Z,10.31
2023-03-02T11:12:54.739Z,10.34
2023-03-02T11:13:56.886Z,10.40
2023-03-02T11:15:12.926Z,10.47
2023-03-02T11:16:25.430Z,10.55
2023-03-02T11:17:32.289Z,10.61
2023-03-02T11:18:38.757Z,10.70
2023-03-02T11:19:42.248Z,10.76
2023-03-02T11:20:46.853Z,10.83
2023-03-02T11:21:52.530Z,10.91
2023-03-02T11:23:02.295Z,10.98
2023-03-02T11:24:10.603Z,11.00
2023-03-02T11:25:18.988Z,11.04
2023-03-02T11:26:24.658Z,11.02
2023-03-02T11:27:28.259Z,11.02
2023-03-02T11:28:37.968Z,11.00
2023-03-02T11:29:43.519Z,11.02
2023-03-02T11:30:48.132Z,11.06
2023-03-02T11:31:53.484Z,11.12
2023-03-02T11:33:00.014Z,11.13
2023-03-02T11:34:17.840Z,11.19
2023-03-02T11:35:31.252Z,11.19
2023-03-02T11:36:44.298Z,11.18
2023-03-02T11:37:48.989Z,11.20
2023-03-02T11:38:55.062Z,11.23
2023-03-02T11:40:15.689Z,11.26
2023-03-02T11:41:29.793Z,11.29
2023-03-02T11:42:34.952Z,11.28
2023-03-02T11:43:37.749Z,11.28
2023-03-02T11:44:39.479Z,11.28
2023-03-02T11:45:45.403Z,11.23
2023-03-02T11:46:49.739Z,11.21
2023-03-02T11:48:02.512Z,11.18
2023-03-02T11:49:09.967Z,11.12
2023-03-02T11:50:13.951Z,11.09
2023-03-02T11:51:20.712Z,11.02
2023-03-02T11:52:25.222Z,10.91
2023-03-02T11:53:31.817Z,10.85
2023-03-02T11:54:38.657Z,10.90
2023-03-02T11:55:45.696Z,10.92
2023-03-02T11:56:48.555Z,11.01
2023-03-02T11:57:53.862Z,11.05
2023-03-02T11:58:58.188Z,11.10
2023-03-02T12:00:01.146Z,11.16
2023-03-02T12:01:04.573Z,11.23
2023-03-02T12:02:09.471Z,11.32
2023-03-02T12:03:22.702Z,11.39
2023-03-02T12:04:32.230Z,11.49
2023-03-02T12:05:37.425Z,11.52
2023-03-02T12:06:44.051Z,11.58
2023-03-02T12:07:57.464Z,11.63
2023-03-02T12:09:10.800Z,11.67
2023-03-02T12:10:28.434Z,11.73
2023-03-02T12:11:35.423Z,11.79
2023-03-02T12:12:44.468Z,11.83
2023-03-02T12:13:58.924Z,11.90
2023-03-02T12:15:02.168Z,11.99
2023-03-02T12:16:05.547Z,12.07
2023-03-02T12:17:19.691Z,12.10
2023-03-02T12:18:47.243Z,12.09
2023-03-02T12:19:51.008Z,12.09
2023-03-02T12:21:00.756Z,12.12
2023-03-02T12:23:25.064Z,12.23
2023-03-02T12:24:30.504Z,12.24
2023-03-02T12:25:42.114Z,12.25
2023-03-02T12:26:45.063Z,12.27
2023-03-02T12:27:48.632Z,12.27
2023-03-02T12:28:59.325Z,12.23
2023-03-02T12:30:12.601Z,12.20
2023-03-02T12:31:15.467Z,12.15
2023-03-02T12:32:25.485Z,12.07
2023-03-02T12:33:28.387Z,12.08
2023-03-02T12:34:37.224Z,12.06
2023-03-02T12:35:40.378Z,12.10
2023-03-02T12:36:44.627Z,12.16
2023-03-02T12:37:51.850Z,12.23
2023-03-02T12:39:07.849Z,12.28
2023-03-02T12:40:33.544Z,12.41
2023-03-02T12:42:05.914Z,12.53
2023-03-02T12:43:28.296Z,12.67
2023-03-02T12:44:43.939Z,12.74
2023-03-02T12:45:55.349Z,12.78
2023-03-02T12:47:02.835Z,12.85
2023-03-02T12:48:21.319Z,12.92
2023-03-02T12:49:41.841Z,12.98
2023-03-02T12:50:43.741Z,13.05
2023-03-02T12:51:50.612Z,13.11
2023-03-02T12:52:59.512Z,13.16
2023-03-02T12:54:09.165Z,13.11
2023-03-02T12:55:17.809Z,13.13
2023-03-02T12:56:23.651Z,13.15
2023-03-02T12:57:26.600Z,13.18
2023-03-02T12:58:30.376Z,13.16
2023-03-02T12:59:33.126Z,13.20
2023-03-02T13:00:36.054Z,13.18
2023-03-02T13:01:39.100Z,13.18
2023-03-02T13:02:47.482Z,13.17
2023-03-02T13:03:50.745Z,13.12
2023-03-02T13:04:55.936Z,13.15
2023-03-02T13:06:03.524Z,13.15
2023-03-02T13:07:06.706Z,13.07
2023-03-02T13:08:15.334Z,13.09
2023-03-02T13:09:20.378Z,13.13
2023-03-02T13:10:28.534Z,13.15
2023-03-02T13:11:34.192Z,13.16
2023-03-02T13:12:38.039Z,13.21
2023-03-02T13:13:41.650Z,13.28
2023-03-02T13:14:46.800Z,13.37
2023-03-02T13:15:50.956Z,13.46
2023-03-02T13:16:58.224Z,13.50
2023-03-02T13:18:01.408Z,13.53
2023-03-02T13:19:16.608Z,13.49
2023-03-02T13:20:20.610Z,13.45
2023-03-02T13:21:27.921Z,13.48
2023-03-02T13:22:29.944Z,13.56
2023-03-02T13:23:34.879Z,13.69
2023-03-02T13:24:47.216Z,13.81
2023-03-02T13:25:51.912Z,13.92
2023-03-02T13:26:57.442Z,14.02
2023-03-02T13:28:07.455Z,14.07
2023-03-02T13:29:20.674Z,14.09
2023-03-02T13:30:26.054Z,14.06
2023-03-02T13:31:29.033Z,14.05
2023-03-02T13:32:36.619Z,14.01
2023-03-02T13:33:44.853Z,13.97
2023-03-02T13:34:49.543Z,13.97
2023-03-02T13:35:52.454Z,13.99
2023-03-02T13:36:55.790Z,14.05
2023-03-02T13:38:00.924Z,14.15
2023-03-02T13:39:07.020Z,14.22
2023-03-02T13:40:33.645Z,14.27
2023-03-02T13:41:37.993Z,14.33
2023-03-02T13:42:41.781Z,14.37
2023-03-02T13:43:44.580Z,14.43
2023-03-02T13:44:46.497Z,14.51
2023-03-02T13:45:55.109Z,14.59
2023-03-02T13:46:58.619Z,14.65
2023-03-02T13:48:13.719Z,14.67
2023-03-02T13:49:27.371Z,14.68
2023-03-02T13:50:31.782Z,14.70
2023-03-02T13:51:36.075Z,14.61
2023-03-02T13:52:40.781Z,14.57
2023-03-02T13:53:47.078Z,14.58
2023-03-02T13:54:48.870Z,14.60
2023-03-02T13:55:54.086Z,14.62
2023-03-02T13:56:57.289Z,14.68
2023-03-02T13:58:00.623Z,14.77
2023-03-02T13:59:03.540Z,14.88
2023-03-02T14:00:07.192Z,14.98
2023-03-02T14:01:12.453Z,14.99
2023-03-02T14:02:22.698Z,15.00
2023-03-02T14:03:27.801Z,14.97
2023-03-02T14:04:29.700Z,14.90
2023-03-02T14:05:33.918Z,14.77